Time,TemperatureF,DewpointF,PressureIn,WindDirection,WindDirectionDegrees,WindSpeedMPH,WindSpeedGustMPH,Humidity,HourlyPrecipIn,Conditions,Clouds,dailyrainin,SolarRadiationWatts/m^2,SoftwareType,DateUTC
2013-03-12 00:02:00,46.0,42.0,-100.00,NNW,332,5.0,18.0,86,0.00,,,1.26,0.000000,,2013-03-12 05:02:00,
2013-03-12 00:12:00,46.0,42.0,-100.00,NNW,332,5.0,18.0,86,0.00,,,1.26,0.000000,,2013-03-12 05:12:00,
2013-03-12 00:32:00,45.0,42.0,-100.00,NNW,336,3.0,9.0,90,0.00,,,1.26,0.000000,,2013-03-12 05:32:00,
2013-03-12 00:42:00,45.0,42.0,-100.00,NNW,336,3.0,9.0,90,0.00,,,1.26,0.000000,,2013-03-12 05:42:00,
2013-03-12 00:52:00,45.0,42.0,-100.00,NNW,336,3.0,9.0,90,0.00,,,1.26,0.000000,,2013-03-12 05:52:00,
2013-03-12 01:02:00,45.0,42.0,-100.00,NNW,336,3.0,9.0,90,0.00,,,1.26,0.000000,,2013-03-12 06:02:00,
2013-03-12 01:12:00,45.0,42.0,-100.00,NNW,336,3.0,9.0,90,0.00,,,1.26,0.000000,,2013-03-12 06:12:00,
2013-03-12 01:42:00,44.0,42.0,-100.00,NNW,334,3.0,6.0,92,0.00,,,1.26,0.000000,,2013-03-12 06:42:00,
2013-03-12 01:52:00,44.0,42.0,-100.00,NNW,334,3.0,6.0,92,0.00,,,1.26,0.000000,,2013-03-12 06:52:00,
2013-03-12 02:02:00,44.0,42.0,-100.00,NNW,334,3.0,6.0,92,0.00,,,1.26,0.000000,,2013-03-12 07:02:00,
2013-03-12 02:12:00,44.0,42.0,-100.00,NNW,334,3.0,6.0,92,0.00,,,1.26,0.000000,,2013-03-12 07:12:00,
2013-03-12 02:32:00,43.0,41.0,-100.00,NNW,334,5.0,10.0,92,0.00,,,1.26,0.000000,,2013-03-12 07:32:00,
2013-03-12 02:42:00,43.0,41.0,-100.00,NNW,334,5.0,10.0,92,0.00,,,1.26,0.000000,,2013-03-12 07:42:00,
2013-03-12 02:52:00,43.0,41.0,-100.00,NNW,334,5.0,10.0,92,0.00,,,1.26,0.000000,,2013-03-12 07:52:00,
2013-03-12 03:02:00,43.0,41.0,-100.00,NNW,334,5.0,10.0,92,0.00,,,1.26,0.000000,,2013-03-12 08:02:00,
2013-03-12 03:12:00,43.0,41.0,-100.00,NNW,334,5.0,10.0,92,0.00,,,1.26,0.000000,,2013-03-12 08:12:00,
2013-03-12 03:42:00,43.0,39.0,-100.00,NNW,333,7.0,14.0,87,0.00,,,1.26,0.000000,,2013-03-12 08:42:00,
2013-03-12 03:52:00,43.0,39.0,-100.00,NNW,333,7.0,14.0,87,0.00,,,1.26,0.000000,,2013-03-12 08:52:00,
2013-03-12 04:03:00,43.0,39.0,-100.00,NNW,333,7.0,14.0,87,0.00,,,1.26,0.000000,,2013-03-12 09:03:00,
2013-03-12 04:12:00,43.0,39.0,-100.00,NNW,333,7.0,14.0,87,0.00,,,1.26,0.000000,,2013-03-12 09:12:00,
2013-03-12 04:43:00,42.0,39.0,-100.00,NNW,335,5.0,12.0,88,0.00,,,1.26,0.000000,,2013-03-12 09:43:00,
2013-03-12 04:52:00,42.0,39.0,-100.00,NNW,335,5.0,12.0,88,0.00,,,1.26,0.000000,,2013-03-12 09:52:00,
2013-03-12 05:02:00,42.0,39.0,-100.00,NNW,335,5.0,12.0,88,0.00,,,1.26,0.000000,,2013-03-12 10:02:00,
2013-03-12 05:12:00,42.0,39.0,-100.00,NNW,335,5.0,12.0,88,0.00,,,1.26,0.000000,,2013-03-12 10:12:00,
2013-03-12 05:33:00,41.0,37.0,-100.00,NNW,339,5.0,12.0,87,0.00,,,1.26,0.000000,,2013-03-12 10:33:00,
2013-03-12 05:42:00,41.0,37.0,-100.00,NNW,339,5.0,12.0,87,0.00,,,1.26,0.000000,,2013-03-12 10:42:00,
2013-03-12 05:52:00,41.0,37.0,-100.00,NNW,339,5.0,12.0,87,0.00,,,1.26,0.000000,,2013-03-12 10:52:00,
2013-03-12 06:02:00,41.0,37.0,-100.00,NNW,339,5.0,12.0,87,0.00,,,1.26,0.000000,,2013-03-12 11:02:00,
2013-03-12 06:12:00,41.0,37.0,-100.00,NNW,339,5.0,12.0,87,0.00,,,1.26,0.000000,,2013-03-12 11:12:00,
2013-03-12 06:33:00,40.0,36.0,-100.00,North,349,6.0,16.0,84,0.00,,,1.26,0.000000,,2013-03-12 11:33:00,
2013-03-12 06:42:00,40.0,36.0,-100.00,North,349,6.0,16.0,84,0.00,,,1.26,0.000000,,2013-03-12 11:42:00,
2013-03-12 06:52:00,40.0,36.0,-100.00,North,349,6.0,16.0,84,0.00,,,1.26,0.000000,,2013-03-12 11:52:00,
2013-03-12 07:02:00,40.0,36.0,-100.00,North,349,6.0,16.0,84,0.00,,,1.26,0.000000,,2013-03-12 12:02:00,
2013-03-12 07:12:00,40.0,36.0,-100.00,North,349,6.0,16.0,84,0.00,,,1.26,0.000000,,2013-03-12 12:12:00,
2013-03-12 07:42:00,39.0,35.0,-100.00,NNW,344,4.0,11.0,85,0.00,,,1.26,2.000000,,2013-03-12 12:42:00,
2013-03-12 07:52:00,39.0,35.0,-100.00,NNW,344,4.0,11.0,85,0.00,,,1.26,2.000000,,2013-03-12 12:52:00,
2013-03-12 08:02:00,39.0,35.0,-100.00,NNW,344,4.0,11.0,85,0.00,,,1.26,2.000000,,2013-03-12 13:02:00,
2013-03-12 08:12:00,39.0,35.0,-100.00,NNW,344,4.0,11.0,85,0.00,,,1.26,2.000000,,2013-03-12 13:12:00,
2013-03-12 08:43:00,41.0,35.0,-100.00,NNW,336,4.0,9.0,80,0.00,,,1.26,62.000000,,2013-03-12 13:43:00,
2013-03-12 08:52:00,41.0,35.0,-100.00,NNW,336,4.0,9.0,80,0.00,,,1.26,62.000000,,2013-03-12 13:52:00,
2013-03-12 09:02:00,41.0,35.0,-100.00,NNW,336,4.0,9.0,80,0.00,,,1.26,62.000000,,2013-03-12 14:02:00,
2013-03-12 09:12:00,41.0,35.0,-100.00,NNW,336,4.0,9.0,80,0.00,,,1.26,62.000000,,2013-03-12 14:12:00,
2013-03-12 09:43:00,45.0,34.0,-100.00,NNW,348,6.0,18.0,66,0.00,,,1.26,133.000000,,2013-03-12 14:43:00,
2013-03-12 09:53:00,45.0,34.0,-100.00,NNW,348,6.0,18.0,66,0.00,,,1.26,133.000000,,2013-03-12 14:53:00,
2013-03-12 10:02:00,45.0,34.0,-100.00,NNW,348,6.0,18.0,66,0.00,,,1.26,133.000000,,2013-03-12 15:02:00,
2013-03-12 10:12:00,45.0,34.0,-100.00,NNW,348,6.0,18.0,66,0.00,,,1.26,133.000000,,2013-03-12 15:12:00,
2013-03-12 10:43:00,50.0,33.0,-100.00,NNW,341,8.0,22.0,52,0.00,,,1.26,583.000000,,2013-03-12 15:43:00,
2013-03-12 10:53:00,50.0,33.0,-100.00,NNW,341,8.0,22.0,52,0.00,,,1.26,583.000000,,2013-03-12 15:53:00,
2013-03-12 11:02:00,50.0,33.0,-100.00,NNW,341,8.0,22.0,52,0.00,,,1.26,583.000000,,2013-03-12 16:02:00,
2013-03-12 11:12:00,50.0,33.0,-100.00,NNW,341,8.0,22.0,52,0.00,,,1.26,583.000000,,2013-03-12 16:12:00,
2013-03-12 11:43:00,53.0,32.0,-100.00,NNW,343,8.0,22.0,45,0.00,,,1.26,689.000000,,2013-03-12 16:43:00,
2013-03-12 11:53:00,53.0,32.0,-100.00,NNW,343,8.0,22.0,45,0.00,,,1.26,689.000000,,2013-03-12 16:53:00,
2013-03-12 12:03:00,53.0,32.0,-100.00,NNW,343,8.0,22.0,45,0.00,,,1.26,689.000000,,2013-03-12 17:03:00,
2013-03-12 12:13:00,53.0,32.0,-100.00,NNW,343,8.0,22.0,45,0.00,,,1.26,689.000000,,2013-03-12 17:13:00,
2013-03-12 12:44:00,57.0,31.0,-100.00,NW,323,8.0,19.0,37,0.00,,,1.26,754.000000,,2013-03-12 17:44:00,
2013-03-12 12:53:00,57.0,31.0,-100.00,NW,323,8.0,19.0,37,0.00,,,1.26,754.000000,,2013-03-12 17:53:00,
2013-03-12 13:03:00,57.0,31.0,-100.00,NW,323,8.0,19.0,37,0.00,,,1.26,754.000000,,2013-03-12 18:03:00,
2013-03-12 13:13:00,57.0,31.0,-100.00,NW,323,8.0,19.0,37,0.00,,,1.26,754.000000,,2013-03-12 18:13:00,
2013-03-12 13:43:00,61.0,32.0,-100.00,NNW,335,7.0,18.0,34,0.00,,,0.87,842.000000,,2013-03-12 18:43:00,
2013-03-12 13:53:00,61.0,32.0,-100.00,NNW,335,7.0,18.0,34,0.00,,,0.87,842.000000,,2013-03-12 18:53:00,
2013-03-12 14:03:00,61.0,32.0,-100.00,NNW,335,7.0,18.0,34,0.00,,,0.87,842.000000,,2013-03-12 19:03:00,
2013-03-12 14:13:00,61.0,32.0,-100.00,NNW,335,7.0,18.0,34,0.00,,,0.87,842.000000,,2013-03-12 19:13:00,
2013-03-12 14:44:00,64.0,31.0,-100.00,NNW,340,7.0,19.0,29,0.00,,,0.57,868.000000,,2013-03-12 19:44:00,
2013-03-12 14:53:00,64.0,31.0,-100.00,NNW,340,7.0,19.0,29,0.00,,,0.57,868.000000,,2013-03-12 19:53:00,
2013-03-12 15:02:00,64.0,31.0,-100.00,NNW,340,7.0,19.0,29,0.00,,,0.57,868.000000,,2013-03-12 20:02:00,
2013-03-12 15:12:00,64.0,31.0,-100.00,NNW,340,7.0,19.0,29,0.00,,,0.57,868.000000,,2013-03-12 20:12:00,
2013-03-12 15:42:00,65.0,32.0,-100.00,NW,326,7.0,17.0,29,0.00,,,0.31,771.000000,,2013-03-12 20:42:00,
2013-03-12 15:53:00,65.0,32.0,-100.00,NW,326,7.0,17.0,29,0.00,,,0.31,771.000000,,2013-03-12 20:53:00,
2013-03-12 16:02:00,65.0,32.0,-100.00,NW,326,7.0,17.0,29,0.00,,,0.31,771.000000,,2013-03-12 21:02:00,
2013-03-12 16:12:00,65.0,32.0,-100.00,NW,326,7.0,17.0,29,0.00,,,0.31,771.000000,,2013-03-12 21:12:00,
2013-03-12 16:43:00,63.0,32.0,-100.00,NNW,341,8.0,20.0,31,0.00,,,0.03,270.000000,,2013-03-12 21:43:00,
2013-03-12 16:53:00,63.0,32.0,-100.00,NNW,341,8.0,20.0,31,0.00,,,0.03,270.000000,,2013-03-12 21:53:00,
2013-03-12 17:02:00,63.0,32.0,-100.00,NNW,341,8.0,20.0,31,0.00,,,0.03,270.000000,,2013-03-12 22:02:00,
2013-03-12 17:12:00,63.0,32.0,-100.00,NNW,341,8.0,20.0,31,0.00,,,0.03,270.000000,,2013-03-12 22:12:00,
2013-03-12 17:43:00,64.0,33.0,-100.00,NW,321,7.0,17.0,31,0.00,,,0.00,190.000000,,2013-03-12 22:43:00,
2013-03-12 17:53:00,64.0,33.0,-100.00,NW,321,7.0,17.0,31,0.00,,,0.00,190.000000,,2013-03-12 22:53:00,
2013-03-12 18:02:00,64.0,33.0,-100.00,NW,321,7.0,17.0,31,0.00,,,0.00,190.000000,,2013-03-12 23:02:00,
2013-03-12 18:12:00,64.0,33.0,-100.00,NW,321,7.0,17.0,31,0.00,,,0.00,190.000000,,2013-03-12 23:12:00,
2013-03-12 18:34:00,60.0,34.0,-100.00,NNW,343,4.0,14.0,38,0.00,,,0.00,179.000000,,2013-03-12 23:34:00,
2013-03-12 18:43:00,60.0,34.0,-100.00,NNW,343,4.0,14.0,38,0.00,,,0.00,179.000000,,2013-03-12 23:43:00,
2013-03-12 18:52:00,60.0,34.0,-100.00,NNW,343,4.0,14.0,38,0.00,,,0.00,179.000000,,2013-03-12 23:52:00,
2013-03-12 19:03:00,60.0,34.0,-100.00,NNW,343,4.0,14.0,38,0.00,,,0.00,179.000000,,2013-03-13 00:03:00,
2013-03-12 19:12:00,60.0,34.0,-100.00,NNW,343,4.0,14.0,38,0.00,,,0.00,179.000000,,2013-03-13 00:12:00,
2013-03-12 19:42:00,54.0,35.0,-100.00,NNW,328,4.0,9.0,49,0.00,,,0.00,8.000000,,2013-03-13 00:42:00,
2013-03-12 19:53:00,54.0,35.0,-100.00,NNW,328,4.0,9.0,49,0.00,,,0.00,8.000000,,2013-03-13 00:53:00,
2013-03-12 20:03:00,54.0,35.0,-100.00,NNW,328,4.0,9.0,49,0.00,,,0.00,8.000000,,2013-03-13 01:03:00,
2013-03-12 20:12:00,54.0,35.0,-100.00,NNW,328,4.0,9.0,49,0.00,,,0.00,8.000000,,2013-03-13 01:12:00,
2013-03-12 20:33:00,51.0,35.0,-100.00,NNW,332,4.0,8.0,54,0.00,,,0.00,0.000000,,2013-03-13 01:33:00,
2013-03-12 20:43:00,51.0,35.0,-100.00,NNW,332,4.0,8.0,54,0.00,,,0.00,0.000000,,2013-03-13 01:43:00,
2013-03-12 20:53:00,51.0,35.0,-100.00,NNW,332,4.0,8.0,54,0.00,,,0.00,0.000000,,2013-03-13 01:53:00,
2013-03-12 21:02:00,51.0,35.0,-100.00,NNW,332,4.0,8.0,54,0.00,,,0.00,0.000000,,2013-03-13 02:02:00,
2013-03-12 21:12:00,51.0,35.0,-100.00,NNW,332,4.0,8.0,54,0.00,,,0.00,0.000000,,2013-03-13 02:12:00,
2013-03-12 21:43:00,52.0,34.0,-100.00,NW,326,4.0,13.0,50,0.00,,,0.00,0.000000,,2013-03-13 02:43:00,
2013-03-12 21:53:00,52.0,34.0,-100.00,NW,326,4.0,13.0,50,0.00,,,0.00,0.000000,,2013-03-13 02:53:00,
2013-03-12 22:02:00,52.0,34.0,-100.00,NW,326,4.0,13.0,50,0.00,,,0.00,0.000000,,2013-03-13 03:02:00,
2013-03-12 22:12:00,52.0,34.0,-100.00,NW,326,4.0,13.0,50,0.00,,,0.00,0.000000,,2013-03-13 03:12:00,
2013-03-12 22:33:00,49.0,34.0,-100.00,NW,323,4.0,8.0,57,0.00,,,0.00,0.000000,,2013-03-13 03:33:00,
2013-03-12 22:42:00,49.0,34.0,-100.00,NW,323,4.0,8.0,57,0.00,,,0.00,0.000000,,2013-03-13 03:42:00,
2013-03-12 22:53:00,49.0,34.0,-100.00,NW,323,4.0,8.0,57,0.00,,,0.00,0.000000,,2013-03-13 03:53:00,
2013-03-12 23:03:00,49.0,34.0,-100.00,NW,323,4.0,8.0,57,0.00,,,0.00,0.000000,,2013-03-13 04:03:00,
2013-03-12 23:13:00,49.0,34.0,-100.00,NW,323,4.0,8.0,57,0.00,,,0.00,0.000000,,2013-03-13 04:13:00,
2013-03-12 23:32:00,48.0,35.0,-100.00,NW,324,4.0,8.0,61,0.00,,,0.00,0.000000,,2013-03-13 04:32:00,
2013-03-12 23:43:00,48.0,35.0,-100.00,NW,324,4.0,8.0,61,0.00,,,0.00,0.000000,,2013-03-13 04:43:00,
2013-03-12 23:53:00,48.0,35.0,-100.00,NW,324,4.0,8.0,61,0.00,,,0.00,0.000000,,2013-03-13 04:53:00,